Time;durP1;ratioP1;P1;durP2;ratioP2;P2;SDS_P1;SDS_P2;PMS_P1;PMS_P2;Temp;Humidity;BMP_temperature;BMP_pressure;BME280_temperature;BME280_humidity;BME280_pressure;Samples;Min_cycle;Max_cycle;Signal;HPM_P1;HPM_P2
2022/09/04 00:01:25;;;;;;;5.75;5.05;;;23.90;51.60;;;;;;5127300;27;45237;-73
2022/09/04 00:03:56;;;;;;;6.63;4.80;;;23.90;51.60;;;;;;5128163;27;45360;-73
2022/09/04 00:06:26;;;;;;;6.05;4.53;;;23.90;51.70;;;;;;5127381;27;46484;-73
2022/09/04 00:09:02;;;;;;;5.97;4.60;;;23.90;51.70;;;;;;5127849;27;45287;-73
2022/09/04 00:11:35;;;;;;;7.88;4.97;;;23.90;51.70;;;;;;5127704;27;45310;-74
2022/09/04 00:14:05;;;;;;;7.07;5.57;;;23.90;51.60;;;;;;5128122;27;45288;-74
2022/09/04 00:16:35;;;;;;;6.88;5.20;;;23.90;51.70;;;;;;5127982;27;45284;-74
2022/09/04 00:19:03;;;;;;;6.82;5.43;;;23.90;51.80;;;;;;5130890;27;45385;-73
2022/09/04 00:21:33;;;;;;;8.70;6.35;;;23.90;51.70;;;;;;5146165;27;45193;-74
2022/09/04 00:24:00;;;;;;;7.13;5.88;;;23.80;51.60;;;;;;5149310;27;45454;-74
2022/09/04 00:26:44;;;;;;;6.45;5.32;;;23.80;51.60;;;;;;5152328;27;45308;-74
2022/09/04 00:29:16;;;;;;;7.53;5.90;;;23.80;51.70;;;;;;5153368;27;45266;-73
2022/09/04 00:31:46;;;;;;;7.57;5.85;;;23.80;51.70;;;;;;5152505;27;45302;-74
2022/09/04 00:34:17;;;;;;;8.30;5.72;;;23.80;51.70;;;;;;5152514;27;45289;-74
2022/09/04 00:36:45;;;;;;;7.65;5.72;;;23.80;51.70;;;;;;5152757;27;45267;-74
2022/09/04 00:39:13;;;;;;;8.63;6.28;;;23.80;51.70;;;;;;5152926;27;45320;-74
2022/09/04 00:41:44;;;;;;;9.70;5.95;;;23.80;51.70;;;;;;5153822;27;45298;-74
2022/09/04 00:44:27;;;;;;;7.32;5.95;;;23.80;51.70;;;;;;5153002;27;45142;-74
2022/09/04 00:47:09;;;;;;;8.95;6.40;;;23.70;51.60;;;;;;5152421;27;45584;-74
2022/09/04 00:49:49;;;;;;;9.05;6.60;;;23.70;51.70;;;;;;5152507;27;45437;-74
2022/09/04 00:52:23;;;;;;;7.50;6.00;;;23.70;51.70;;;;;;5152795;27;45209;-74
2022/09/04 00:54:57;;;;;;;8.73;6.47;;;23.70;51.60;;;;;;5152832;27;45160;-74
2022/09/04 00:57:52;;;;;;;8.43;6.43;;;23.70;51.70;;;;;;5149724;27;46762;-74
2022/09/04 01:00:20;;;;;;;9.82;7.50;;;23.70;51.80;;;;;;5152438;27;45257;-73
2022/09/04 01:03:03;;;;;;;10.13;6.97;;;23.70;51.60;;;;;;5151528;27;45244;-74
2022/09/04 01:05:39;;;;;;;11.90;7.45;;;23.70;51.80;;;;;;5151581;27;45222;-73
2022/09/04 01:08:10;;;;;;;10.05;7.30;;;23.60;51.80;;;;;;5151161;27;45452;-74
2022/09/04 01:10:43;;;;;;;10.13;7.28;;;23.60;51.60;;;;;;5151070;27;45187;-74
2022/09/04 01:13:11;;;;;;;11.05;7.93;;;23.60;51.80;;;;;;5151271;27;45231;-74
2022/09/04 01:15:43;;;;;;;12.68;8.27;;;23.60;51.70;;;;;;5153076;27;45588;-74
2022/09/04 01:18:12;;;;;;;11.93;8.63;;;23.60;51.60;;;;;;5151657;27;46652;-75
2022/09/04 01:20:53;;;;;;;10.35;7.55;;;23.60;51.70;;;;;;5150989;27;45235;-74
2022/09/04 01:23:34;;;;;;;12.00;7.95;;;23.60;51.80;;;;;;5151290;27;45250;-74
2022/09/04 01:26:07;;;;;;;11.60;8.13;;;23.50;51.80;;;;;;5151279;27;45171;-74
2022/09/04 01:28:37;;;;;;;11.25;7.72;;;23.50;51.70;;;;;;5150749;27;46676;-74
2022/09/04 01:31:07;;;;;;;13.25;9.02;;;23.50;51.70;;;;;;5138663;27;45392;-74
2022/09/04 01:33:38;;;;;;;11.48;8.50;;;23.50;51.70;;;;;;5129973;27;45197;-74
2022/09/04 01:36:08;;;;;;;11.68;8.98;;;23.50;51.70;;;;;;5130033;27;45253;-74
2022/09/04 01:38:39;;;;;;;11.20;8.40;;;23.50;51.70;;;;;;5129212;27;46424;-74
2022/09/04 01:41:11;;;;;;;11.10;8.77;;;23.50;51.80;;;;;;5129475;27;45311;-74
2022/09/04 01:43:38;;;;;;;12.85;8.30;;;23.40;51.80;;;;;;5129823;27;45255;-74
2022/09/04 01:46:21;;;;;;;11.98;8.75;;;23.40;51.80;;;;;;5130058;27;45255;-74
2022/09/04 01:48:50;;;;;;;12.40;8.30;;;23.40;51.70;;;;;;5129405;27;46391;-74
2022/09/04 01:51:23;;;;;;;11.98;8.65;;;23.40;51.80;;;;;;5129697;27;45430;-74
2022/09/04 01:53:54;;;;;;;13.35;9.13;;;23.40;51.80;;;;;;5129514;27;45279;-75
2022/09/04 01:56:25;;;;;;;13.75;8.85;;;23.40;51.70;;;;;;5132487;27;45199;-74
2022/09/04 01:58:54;;;;;;;13.05;8.35;;;23.40;51.80;;;;;;5129057;27;45330;-74
2022/09/04 02:01:24;;;;;;;12.15;8.63;;;23.40;51.70;;;;;;5129493;27;45169;-73
2022/09/04 02:03:56;;;;;;;11.32;8.57;;;23.40;51.90;;;;;;5129720;27;45361;-74
2022/09/04 02:06:28;;;;;;;10.90;8.38;;;23.30;51.70;;;;;;5129726;27;45229;-74
2022/09/04 02:09:08;;;;;;;12.00;8.38;;;23.30;51.70;;;;;;5129169;27;46581;-74
2022/09/04 02:11:36;;;;;;;11.13;8.60;;;23.30;51.70;;;;;;5129111;27;45353;-75
2022/09/04 02:14:16;;;;;;;12.98;8.95;;;23.30;51.70;;;;;;5129339;27;45176;-74
2022/09/04 02:16:48;;;;;;;13.38;8.93;;;23.30;51.70;;;;;;5129552;27;45296;-74
2022/09/04 02:19:21;;;;;;;11.68;8.35;;;23.30;51.70;;;;;;5132529;27;46679;-75
2022/09/04 02:21:51;;;;;;;12.13;8.25;;;23.30;52.30;;;;;;5149908;27;45198;-74
2022/09/04 02:24:21;;;;;;;15.73;9.13;;;23.30;51.70;;;;;;5150082;27;45326;-74
2022/09/04 02:26:51;;;;;;;9.98;7.97;;;23.30;51.70;;;;;;5149689;27;45359;-72
2022/09/04 02:29:24;;;;;;;10.38;7.72;;;23.20;51.60;;;;;;5148998;27;45282;-73
2022/09/04 02:31:55;;;;;;;11.57;8.35;;;23.20;51.70;;;;;;5148983;27;45371;-73
2022/09/04 02:34:24;;;;;;;11.15;7.65;;;23.20;51.60;;;;;;5149813;27;45290;-74
2022/09/04 02:36:55;;;;;;;10.10;7.50;;;23.30;51.70;;;;;;5150095;27;45426;-74
2022/09/04 02:39:29;;;;;;;10.32;7.80;;;23.20;51.70;;;;;;5149536;27;46635;-74
2022/09/04 02:42:02;;;;;;;11.57;7.70;;;23.20;51.60;;;;;;5149541;27;45309;-74
2022/09/04 02:44:37;;;;;;;10.52;7.85;;;23.20;51.60;;;;;;5149304;27;45312;-74
2022/09/04 02:47:11;;;;;;;11.30;7.90;;;23.20;51.70;;;;;;5149175;27;45289;-73
2022/09/04 02:49:42;;;;;;;10.80;7.50;;;23.20;51.80;;;;;;5149320;27;46345;-73
2022/09/04 02:52:17;;;;;;;10.20;7.93;;;23.20;51.70;;;;;;5149286;27;45187;-74
2022/09/04 02:54:51;;;;;;;10.25;7.43;;;23.10;51.70;;;;;;5149494;27;45170;-75
2022/09/04 02:57:28;;;;;;;9.73;7.32;;;23.20;51.60;;;;;;5146832;27;45310;-73
2022/09/04 03:00:02;;;;;;;10.77;7.53;;;23.10;51.60;;;;;;5149145;27;46776;-73
2022/09/04 03:02:31;;;;;;;9.23;7.28;;;23.10;51.70;;;;;;5149316;27;45257;-74
2022/09/04 03:05:01;;;;;;;8.70;6.53;;;23.10;51.60;;;;;;5149324;27;45271;-74
2022/09/04 03:07:30;;;;;;;9.20;6.88;;;23.10;51.70;;;;;;5149387;27;45398;-74
2022/09/04 03:10:00;;;;;;;10.13;7.07;;;23.10;51.60;;;;;;5149205;27;46550;-74
2022/09/04 03:12:32;;;;;;;9.85;7.15;;;23.00;51.60;;;;;;5149011;27;45389;-74
2022/09/04 03:15:03;;;;;;;8.95;6.78;;;23.00;51.60;;;;;;5149232;27;45187;-74
2022/09/04 03:17:33;;;;;;;9.63;6.75;;;23.00;51.60;;;;;;5149448;27;45446;-74
2022/09/04 03:20:02;;;;;;;10.52;6.97;;;23.10;51.70;;;;;;5139013;27;45383;-74
2022/09/04 03:22:32;;;;;;;8.93;6.60;;;23.00;51.60;;;;;;5128460;27;45239;-75
2022/09/04 03:25:10;;;;;;;8.73;6.50;;;23.00;51.60;;;;;;5128139;27;45296;-74
2022/09/04 03:27:38;;;;;;;9.02;6.75;;;23.00;51.50;;;;;;5128433;27;45282;-74
2022/09/04 03:30:07;;;;;;;8.90;6.32;;;23.00;51.60;;;;;;5131469;27;47558;-74
2022/09/04 03:32:38;;;;;;;8.77;6.57;;;23.00;51.70;;;;;;5148873;27;45142;-74
2022/09/04 03:35:07;;;;;;;8.55;6.35;;;23.00;52.30;;;;;;5149024;27;45206;-74
2022/09/04 03:37:44;;;;;;;9.13;6.13;;;23.00;51.70;;;;;;5148741;27;45328;-73
2022/09/04 03:40:18;;;;;;;9.00;6.63;;;23.00;52.30;;;;;;5148689;27;45518;-73
2022/09/04 03:42:53;;;;;;;9.55;6.97;;;22.90;51.70;;;;;;5148766;27;45390;-74
2022/09/04 03:45:22;;;;;;;8.43;5.97;;;22.90;51.60;;;;;;5148860;27;45237;-74
2022/09/04 03:47:59;;;;;;;10.02;6.30;;;22.90;51.70;;;;;;5149039;27;45180;-74
2022/09/04 03:50:30;;;;;;;8.20;6.30;;;22.90;51.70;;;;;;5148620;27;46367;-74
2022/09/04 03:53:00;;;;;;;8.13;5.57;;;22.90;51.70;;;;;;5148533;27;45245;-74
2022/09/04 03:55:44;;;;;;;7.07;5.57;;;22.90;51.70;;;;;;5148871;27;45179;-74
2022/09/04 03:58:17;;;;;;;7.53;5.55;;;22.90;51.70;;;;;;5146095;27;45482;-74
2022/09/04 04:00:48;;;;;;;6.95;5.43;;;22.80;51.70;;;;;;5151810;27;45253;-73
2022/09/04 04:03:27;;;;;;;6.80;5.32;;;22.90;51.80;;;;;;5152124;27;45288;-74
2022/09/04 04:06:00;;;;;;;7.13;5.50;;;22.90;51.80;;;;;;5152313;27;45310;-74
2022/09/04 04:08:37;;;;;;;6.15;5.25;;;22.80;51.70;;;;;;5152435;27;45328;-74
2022/09/04 04:11:15;;;;;;;7.72;5.40;;;22.80;51.80;;;;;;5151582;27;46587;-73
2022/09/04 04:14:02;;;;;;;7.13;5.60;;;22.80;51.80;;;;;;5151709;27;45261;-74
2022/09/04 04:16:39;;;;;;;6.75;4.97;;;22.80;51.70;;;;;;5152215;27;45182;-74
2022/09/04 04:19:20;;;;;;;5.78;4.70;;;22.80;51.70;;;;;;5149788;27;45204;-74
2022/09/04 04:21:54;;;;;;;7.20;5.40;;;22.80;52.30;;;;;;5130958;27;46378;-73
2022/09/04 04:24:37;;;;;;;7.45;5.30;;;22.80;51.70;;;;;;5131047;27;45111;-74
2022/09/04 04:27:20;;;;;;;6.68;4.97;;;22.80;51.70;;;;;;5131069;27;45242;-74
2022/09/04 04:29:55;;;;;;;7.32;4.68;;;22.80;51.70;;;;;;5131134;27;45299;-74
2022/09/04 04:32:37;;;;;;;6.28;5.00;;;22.80;51.70;;;;;;5130812;27;46443;-74
2022/09/04 04:35:27;;;;;;;6.55;4.82;;;22.70;51.70;;;;;;5130948;27;45334;-73
2022/09/04 04:38:00;;;;;;;7.13;5.13;;;22.70;51.70;;;;;;5130586;27;45303;-74
2022/09/04 04:40:35;;;;;;;6.25;4.88;;;22.70;51.70;;;;;;5131097;27;45264;-74
2022/09/04 04:43:07;;;;;;;5.78;4.47;;;22.70;51.80;;;;;;5130624;27;46413;-73
2022/09/04 04:45:51;;;;;;;7.35;5.00;;;22.70;51.80;;;;;;5130585;27;45268;-73
2022/09/04 04:48:50;;;;;;;5.72;4.38;;;22.70;51.80;;;;;;5130655;27;45198;-74
2022/09/04 04:51:25;;;;;;;5.35;4.28;;;22.60;51.70;;;;;;5130820;27;45251;-75
2022/09/04 04:53:56;;;;;;;6.28;4.32;;;22.60;51.70;;;;;;5130265;27;46502;-73
2022/09/04 04:56:26;;;;;;;4.90;4.10;;;22.60;51.70;;;;;;5133027;27;45313;-74
2022/09/04 04:58:58;;;;;;;6.25;4.72;;;22.60;51.80;;;;;;5130508;27;45244;-74
2022/09/04 05:01:42;;;;;;;5.65;4.28;;;22.60;51.80;;;;;;5130715;27;45421;-74
2022/09/04 05:04:14;;;;;;;5.65;4.13;;;22.60;51.70;;;;;;5130153;27;45302;-74
2022/09/04 05:06:43;;;;;;;5.80;4.70;;;22.60;51.70;;;;;;5130282;27;45206;-74
2022/09/04 05:09:14;;;;;;;4.38;3.53;;;22.60;51.80;;;;;;5130271;27;45297;-73
2022/09/04 05:11:46;;;;;;;5.82;4.32;;;22.60;51.80;;;;;;5130060;27;45480;-73
2022/09/04 05:14:23;;;;;;;5.72;4.25;;;22.60;52.40;;;;;;5130127;27;46894;-73
2022/09/04 05:16:54;;;;;;;4.95;4.05;;;22.60;51.80;;;;;;5130150;27;45266;-74
2022/09/04 05:19:24;;;;;;;8.13;4.10;;;22.60;51.80;;;;;;5134685;27;45328;-73
2022/09/04 05:21:56;;;;;;;4.90;4.38;;;22.60;51.80;;;;;;5151154;27;45157;-73
2022/09/04 05:24:25;;;;;;;5.45;4.18;;;22.60;51.80;;;;;;5150850;27;45339;-73
2022/09/04 05:26:54;;;;;;;5.22;4.20;;;22.60;51.80;;;;;;5150770;27;45211;-73
2022/09/04 05:29:23;;;;;;;5.22;4.22;;;22.50;51.80;;;;;;5151157;27;45295;-73
2022/09/04 05:31:54;;;;;;;5.05;4.07;;;22.50;51.70;;;;;;5132317;27;45176;-75
2022/09/04 05:34:26;;;;;;;5.43;4.00;;;22.50;51.80;;;;;;5129757;27;46383;-74
2022/09/04 05:37:00;;;;;;;4.90;3.97;;;22.50;51.80;;;;;;5129672;27;45194;-73
2022/09/04 05:39:29;;;;;;;4.07;3.45;;;22.50;51.80;;;;;;5129653;27;45396;-74
2022/09/04 05:42:18;;;;;;;5.28;3.97;;;22.50;51.70;;;;;;5129977;27;45287;-73
2022/09/04 05:44:52;;;;;;;4.32;3.35;;;22.50;51.70;;;;;;5129306;27;47397;-74
2022/09/04 05:47:27;;;;;;;4.15;3.45;;;22.50;51.80;;;;;;5129523;27;45253;-74
2022/09/04 05:50:21;;;;;;;3.75;3.42;;;22.50;51.80;;;;;;5129921;27;45248;-73
2022/09/04 05:53:09;;;;;;;5.38;3.35;;;22.50;51.80;;;;;;5117704;27;45279;-74
2022/09/04 05:56:01;;;;;;;3.80;3.20;;;22.50;51.80;;;;;;5129416;27;45445;-73
2022/09/04 05:58:47;;;;;;;4.45;3.42;;;22.50;51.70;;;;;;5128073;27;45216;-74
2022/09/04 06:01:22;;;;;;;4.60;3.35;;;22.50;52.30;;;;;;5147178;27;45309;-73
2022/09/04 06:04:11;;;;;;;4.57;3.17;;;22.50;51.70;;;;;;5150721;27;45568;-74
2022/09/04 06:06:41;;;;;;;4.03;3.30;;;22.50;51.70;;;;;;5150053;27;46691;-73
2022/09/04 06:09:20;;;;;;;4.32;3.30;;;22.50;51.70;;;;;;5150133;27;45316;-73
2022/09/04 06:12:13;;;;;;;5.47;3.55;;;22.50;51.70;;;;;;5150177;27;45302;-73
2022/09/04 06:14:53;;;;;;;4.03;3.10;;;22.50;51.60;;;;;;5150367;27;45375;-73
2022/09/04 06:17:28;;;;;;;4.35;3.40;;;22.50;51.70;;;;;;5149721;27;45456;-73
2022/09/04 06:20:21;;;;;;;4.03;3.47;;;22.50;51.60;;;;;;5140485;27;45192;-73
2022/09/04 06:23:01;;;;;;;5.00;3.10;;;22.50;51.60;;;;;;5118881;27;45184;-74
2022/09/04 06:25:59;;;;;;;3.65;3.13;;;22.50;51.70;;;;;;5128761;27;45451;-73
2022/09/04 06:28:55;;;;;;;3.22;2.92;;;22.50;51.70;;;;;;5128812;27;45341;-73
2022/09/04 06:31:48;;;;;;;3.17;2.85;;;22.40;51.60;;;;;;5143045;27;45210;-74
2022/09/04 06:34:16;;;;;;;3.42;2.80;;;22.40;51.60;;;;;;5135621;27;45231;-73
2022/09/04 06:36:56;;;;;;;4.72;3.15;;;22.50;51.60;;;;;;5150244;27;45157;-73
2022/09/04 06:39:34;;;;;;;3.63;3.08;;;22.50;51.60;;;;;;5149232;27;45390;-73
2022/09/04 06:42:08;;;;;;;4.43;3.20;;;22.50;52.10;;;;;;5149397;27;45226;-73
2022/09/04 06:44:43;;;;;;;4.07;2.97;;;22.50;51.50;;;;;;5149373;27;45450;-73
2022/09/04 06:47:14;;;;;;;3.90;3.10;;;22.50;51.50;;;;;;5149748;27;45407;-73
2022/09/04 06:49:49;;;;;;;2.95;2.70;;;22.50;51.50;;;;;;5149314;27;46733;-73
2022/09/04 06:52:21;;;;;;;4.68;2.45;;;22.50;51.60;;;;;;5149272;27;45307;-73
2022/09/04 06:54:53;;;;;;;3.70;2.55;;;22.50;54.50;;;;;;5149395;27;45207;-73
2022/09/04 06:57:37;;;;;;;4.50;2.63;;;22.40;55.70;;;;;;5146658;27;45253;-73
2022/09/04 07:00:07;;;;;;;3.22;2.38;;;22.40;56.90;;;;;;5149083;27;46905;-73
2022/09/04 07:03:18;;;;;;;2.42;2.22;;;22.40;57.40;;;;;;5149294;27;45210;-73
2022/09/04 07:05:51;;;;;;;12.15;2.22;;;22.30;57.80;;;;;;5133067;27;45347;-74
2022/09/04 07:08:26;;;;;;;3.42;2.17;;;22.30;57.90;;;;;;5149517;27;45359;-73
2022/09/04 07:10:59;;;;;;;2.75;2.53;;;22.30;58.50;;;;;;5148993;27;46303;-74
2022/09/04 07:13:36;;;;;;;3.17;2.45;;;22.30;58.50;;;;;;5149211;27;45296;-74
2022/09/04 07:16:23;;;;;;;3.55;2.55;;;22.30;58.70;;;;;;5149096;27;45259;-73
2022/09/04 07:19:07;;;;;;;1.98;1.80;;;22.30;58.70;;;;;;5137996;27;45587;-75
2022/09/04 07:21:38;;;;;;;3.55;2.17;;;22.30;58.90;;;;;;5127996;27;45496;-74
2022/09/04 07:24:08;;;;;;;2.00;1.80;;;22.30;58.50;;;;;;5128043;27;45251;-73
2022/09/04 07:26:37;;;;;;;2.47;2.28;;;22.30;58.70;;;;;;5128067;27;45178;-74
2022/09/04 07:29:18;;;;;;;5.32;1.98;;;22.30;59.10;;;;;;5128209;27;45444;-74
2022/09/04 07:31:48;;;;;;;3.30;1.90;;;22.30;59.20;;;;;;5145571;27;46966;-74
2022/09/04 07:34:18;;;;;;;3.47;2.10;;;22.30;58.70;;;;;;5148358;27;45293;-74
2022/09/04 07:36:48;;;;;;;2.13;1.92;;;22.30;59.40;;;;;;5148858;27;45289;-75
2022/09/04 07:39:20;;;;;;;3.03;1.90;;;22.30;59.10;;;;;;5148522;27;45227;-74
2022/09/04 07:41:51;;;;;;;2.72;1.90;;;22.40;59.30;;;;;;5148547;27;45268;-74
2022/09/04 07:44:23;;;;;;;2.10;1.90;;;22.40;58.50;;;;;;5148546;27;45434;-74
2022/09/04 07:46:52;;;;;;;3.40;1.85;;;22.30;58.40;;;;;;5148537;27;45220;-74
2022/09/04 07:49:22;;;;;;;1.70;1.60;;;22.40;58.30;;;;;;5148854;27;45302;-74
2022/09/04 07:51:53;;;;;;;3.17;1.70;;;22.40;58.40;;;;;;5148544;27;46733;-75
2022/09/04 07:54:37;;;;;;;4.45;1.85;;;22.50;58.30;;;;;;5148568;27;45364;-74
2022/09/04 07:57:17;;;;;;;2.03;1.83;;;22.50;58.30;;;;;;5145255;27;45333;-75
2022/09/04 08:00:08;;;;;;;3.30;2.10;;;22.60;57.80;;;;;;5148803;27;45410;-75
2022/09/04 08:02:55;;;;;;;1.85;1.75;;;22.60;58.00;;;;;;5142906;27;47312;-75
2022/09/04 08:05:26;;;;;;;2.53;1.80;;;22.60;58.00;;;;;;5114593;27;45170;-75
2022/09/04 08:08:22;;;;;;;3.13;2.00;;;22.60;57.30;;;;;;5148493;27;45228;-75
2022/09/04 08:11:03;;;;;;;1.77;1.67;;;22.60;57.20;;;;;;5148689;27;45533;-74
2022/09/04 08:13:39;;;;;;;2.28;1.58;;;22.70;57.40;;;;;;5147814;27;45536;-74
2022/09/04 08:16:07;;;;;;;5.15;1.80;;;22.70;58.40;;;;;;5148249;27;45282;-74
2022/09/04 08:19:10;;;;;;;3.58;1.70;;;22.70;57.40;;;;;;5148328;27;45340;-74
2022/09/04 08:21:39;;;;;;;4.38;1.90;;;22.70;59.20;;;;;;5064300;28;45340;-75
2022/09/04 08:24:40;;;;;;;2.05;1.85;;;22.70;59.20;;;;;;5063699;28;45462;-76
2022/09/04 08:27:18;;;;;;;2.50;1.67;;;22.80;59.70;;;;;;5108903;27;45311;-74
2022/09/04 08:29:54;;;;;;;1.70;1.60;;;22.80;59.30;;;;;;5126650;27;45341;-74
2022/09/04 08:32:34;;;;;;;3.90;1.75;;;22.80;60.10;;;;;;5148260;27;45223;-75
2022/09/04 08:35:06;;;;;;;2.33;1.80;;;22.80;60.60;;;;;;5147549;27;45232;-74
2022/09/04 08:37:36;;;;;;;2.47;1.90;;;22.80;59.90;;;;;;5147319;27;45262;-75
2022/09/04 08:40:32;;;;;;;2.50;1.80;;;22.80;60.40;;;;;;5148218;27;45338;-74
2022/09/04 08:43:23;;;;;;;2.63;1.67;;;22.80;60.90;;;;;;5147689;27;45390;-74
2022/09/04 08:46:12;;;;;;;3.65;1.88;;;22.90;60.90;;;;;;5149677;27;46549;-74
2022/09/04 08:49:27;;;;;;;2.70;1.65;;;22.90;60.50;;;;;;5151349;27;45293;-75
2022/09/04 08:52:14;;;;;;;3.10;1.90;;;22.90;60.60;;;;;;5087104;28;45335;-75
2022/09/04 08:55:08;;;;;;;1.50;1.40;;;23.00;59.50;;;;;;5145328;27;45182;-75
2022/09/04 08:57:52;;;;;;;2.05;1.60;;;23.00;59.30;;;;;;5148335;27;45370;-75
2022/09/04 09:00:20;;;;;;;2.15;1.98;;;23.10;59.00;;;;;;5133999;27;45304;-75
2022/09/04 09:03:38;;;;;;;1.88;1.60;;;23.10;59.40;;;;;;5151354;27;45256;-74
2022/09/04 09:06:40;;;;;;;2.40;1.60;;;23.10;59.80;;;;;;5151368;27;45175;-73
2022/09/04 09:09:27;;;;;;;1.70;1.60;;;23.20;58.90;;;;;;5128654;27;45325;-74
2022/09/04 09:12:16;;;;;;;1.98;1.70;;;23.20;59.30;;;;;;5150825;27;45168;-75
2022/09/04 09:15:16;;;;;;;1.55;1.45;;;23.20;58.90;;;;;;5151091;27;45366;-75
2022/09/04 09:17:52;;;;;;;1.67;1.52;;;23.30;59.10;;;;;;5086980;28;45539;-75
2022/09/04 09:20:27;;;;;;;1.92;1.80;;;23.40;58.70;;;;;;5086610;28;45438;-75
2022/09/04 09:23:16;;;;;;;4.88;1.90;;;23.40;59.20;;;;;;5093434;28;45325;-74
2022/09/04 09:25:56;;;;;;;1.67;1.50;;;23.40;58.90;;;;;;5114207;27;45469;-74
2022/09/04 09:28:50;;;;;;;3.30;1.67;;;23.50;59.20;;;;;;5151643;27;45481;-74
2022/09/04 09:31:37;;;;;;;1.90;1.80;;;23.50;59.20;;;;;;5151177;27;45213;-74
2022/09/04 09:34:26;;;;;;;2.80;1.92;;;23.60;59.10;;;;;;5151578;27;45312;-74
2022/09/04 09:37:06;;;;;;;1.83;1.70;;;23.70;59.10;;;;;;5153658;27;45270;-73
2022/09/04 09:39:42;;;;;;;1.92;1.50;;;23.70;59.10;;;;;;5151427;27;45513;-73
2022/09/04 09:42:48;;;;;;;3.95;1.52;;;23.80;59.00;;;;;;5150467;27;45277;-74
2022/09/04 09:45:26;;;;;;;2.55;2.00;;;23.90;58.90;;;;;;5150027;27;45142;-73
2022/09/04 09:48:25;;;;;;;2.00;1.85;;;23.90;58.70;;;;;;5150688;27;45354;-74
2022/09/04 09:51:48;;;;;;;1.60;1.38;;;24.00;58.60;;;;;;5150935;27;45228;-74
2022/09/04 09:54:36;;;;;;;2.00;1.80;;;24.00;58.20;;;;;;5149928;27;46630;-74
2022/09/04 09:57:35;;;;;;;1.63;1.52;;;24.10;58.10;;;;;;5148295;27;45441;-74
2022/09/04 10:00:05;;;;;;;2.28;1.88;;;24.10;58.90;;;;;;5152296;27;45363;-74
2022/09/04 10:03:09;;;;;;;2.28;1.42;;;24.10;58.10;;;;;;5152128;27;45191;-73
2022/09/04 10:06:08;;;;;;;2.05;1.50;;;24.20;57.90;;;;;;5150877;27;45443;-73
2022/09/04 10:09:00;;;;;;;1.40;1.30;;;24.20;57.50;;;;;;5150017;27;45130;-73
2022/09/04 10:12:05;;;;;;;1.95;1.52;;;24.30;57.20;;;;;;5118830;27;45287;-74
2022/09/04 10:15:17;;;;;;;2.03;1.83;;;24.30;56.90;;;;;;5152434;27;45163;-73
2022/09/04 10:18:32;;;;;;;3.30;1.80;;;24.40;56.80;;;;;;5151574;27;45430;-74
2022/09/04 10:21:35;;;;;;;1.95;1.42;;;24.40;56.20;;;;;;5128864;27;45264;-73
2022/09/04 10:24:29;;;;;;;1.30;1.30;;;24.50;56.00;;;;;;5076582;27;45316;-72
2022/09/04 10:27:15;;;;;;;1.60;1.50;;;24.50;55.80;;;;;;5131511;27;45325;-72
2022/09/04 10:29:50;;;;;;;1.40;1.30;;;24.60;55.80;;;;;;5131719;27;45517;-74
2022/09/04 10:32:44;;;;;;;2.10;1.60;;;24.60;55.70;;;;;;5151319;27;45318;-73
2022/09/04 10:35:20;;;;;;;1.65;1.55;;;24.70;55.60;;;;;;5151168;27;45236;-72
2022/09/04 10:37:57;;;;;;;2.25;1.40;;;24.70;55.60;;;;;;5151302;27;45457;-73
2022/09/04 10:40:34;;;;;;;1.45;1.20;;;24.70;55.30;;;;;;5150640;27;45297;-74
2022/09/04 10:43:21;;;;;;;1.77;1.20;;;24.80;55.10;;;;;;5150639;27;45364;-74
2022/09/04 10:45:50;;;;;;;1.40;1.30;;;24.80;54.90;;;;;;5149873;27;45250;-72
2022/09/04 10:48:38;;;;;;;1.40;1.30;;;24.90;54.40;;;;;;5150533;27;45456;-73
2022/09/04 10:51:17;;;;;;;1.55;1.42;;;25.00;54.00;;;;;;5149833;27;46592;-73
2022/09/04 10:53:53;;;;;;;1.85;1.38;;;25.00;54.50;;;;;;5149153;27;45253;-72
2022/09/04 10:56:25;;;;;;;1.50;1.40;;;25.10;53.40;;;;;;5148934;27;45298;-73
2022/09/04 10:59:17;;;;;;;1.92;1.45;;;25.10;51.70;;;;;;5129346;27;45383;-74
2022/09/04 11:02:02;;;;;;;3.15;1.40;;;25.10;51.50;;;;;;5128476;27;46364;-73
2022/09/04 11:05:17;;;;;;;1.42;1.20;;;25.20;51.50;;;;;;5129457;27;45427;-73
2022/09/04 11:08:14;;;;;;;3.70;1.40;;;25.30;50.80;;;;;;5128673;27;45329;-73
2022/09/04 11:10:49;;;;;;;2.03;1.30;;;25.30;50.90;;;;;;5103581;27;45383;-72
2022/09/04 11:13:50;;;;;;;1.20;1.10;;;25.40;50.20;;;;;;5129809;27;46302;-73
2022/09/04 11:16:29;;;;;;;1.60;1.17;;;25.50;50.70;;;;;;5149325;27;45242;-72
2022/09/04 11:19:23;;;;;;;2.05;1.27;;;25.50;49.50;;;;;;5146340;27;45437;-73
2022/09/04 11:22:15;;;;;;;1.20;1.10;;;25.60;49.30;;;;;;5133320;27;45323;-74
2022/09/04 11:25:00;;;;;;;2.05;1.50;;;25.70;48.90;;;;;;5148751;27;45495;-73
2022/09/04 11:27:57;;;;;;;1.88;1.70;;;25.70;48.80;;;;;;5149126;27;45450;-73
2022/09/04 11:30:28;;;;;;;2.65;1.80;;;25.80;48.70;;;;;;5149804;27;45326;-73
2022/09/04 11:33:37;;;;;;;1.67;1.42;;;25.90;47.60;;;;;;5149569;27;45129;-74
2022/09/04 11:36:16;;;;;;;1.52;1.42;;;25.90;46.30;;;;;;5106445;27;45553;-73
2022/09/04 11:39:02;;;;;;;2.63;1.75;;;26.00;47.10;;;;;;5149155;27;45425;-73
2022/09/04 11:41:46;;;;;;;1.38;1.25;;;26.00;46.40;;;;;;5149087;27;45298;-74
2022/09/04 11:44:40;;;;;;;0.95;0.95;;;26.00;45.20;;;;;;5148966;27;45232;-72
2022/09/04 11:47:53;;;;;;;2.45;1.10;;;26.10;45.30;;;;;;5147752;27;46916;-72
2022/09/04 11:50:30;;;;;;;1.58;1.00;;;26.20;45.20;;;;;;5087505;27;45531;-73
2022/09/04 11:53:14;;;;;;;2.38;0.93;;;26.30;45.10;;;;;;5148172;27;45344;-73
2022/09/04 11:56:05;;;;;;;1.10;0.95;;;26.30;44.50;;;;;;5148752;27;45325;-73
2022/09/04 11:58:58;;;;;;;1.00;0.90;;;26.40;44.40;;;;;;5147310;27;46378;-73
2022/09/04 12:01:35;;;;;;;1.35;1.13;;;26.40;44.30;;;;;;5147968;27;45230;-74
2022/09/04 12:04:27;;;;;;;2.05;0.98;;;26.50;43.70;;;;;;5147752;27;45322;-74
2022/09/04 12:07:15;;;;;;;3.03;1.10;;;26.50;43.40;;;;;;5145862;27;45251;-74
2022/09/04 12:10:07;;;;;;;1.85;1.10;;;26.60;43.20;;;;;;5148322;27;45187;-73
2022/09/04 12:12:56;;;;;;;1.83;1.38;;;26.70;42.70;;;;;;5114453;27;45274;-73
2022/09/04 12:16:00;;;;;;;6.10;4.85;;;26.80;42.80;;;;;;5108627;27;45247;-73
2022/09/04 12:19:04;;;;;;;8.57;5.78;;;26.80;42.70;;;;;;5152744;27;45347;-74
2022/09/04 12:21:45;;;;;;;3.97;3.58;;;26.90;42.90;;;;;;5132652;27;45390;-73
2022/09/04 12:24:26;;;;;;;5.40;3.80;;;27.00;43.50;;;;;;5134013;27;45272;-74
2022/09/04 12:27:22;;;;;;;4.03;3.40;;;27.00;43.40;;;;;;5151941;27;45232;-75
2022/09/04 12:30:01;;;;;;;3.67;2.15;;;27.10;43.90;;;;;;5068498;27;45483;-75
2022/09/04 12:32:45;;;;;;;2.33;1.77;;;27.20;43.00;;;;;;5138275;27;45251;-75
2022/09/04 12:35:47;;;;;;;2.55;1.90;;;27.20;42.60;;;;;;5151330;27;45219;-75
2022/09/04 12:38:32;;;;;;;3.10;1.30;;;27.20;42.00;;;;;;5151486;27;45256;-75
2022/09/04 12:41:03;;;;;;;2.63;1.45;;;27.30;41.00;;;;;;5151493;27;45367;-75
2022/09/04 12:43:40;;;;;;;1.55;1.35;;;27.30;41.30;;;;;;5151125;27;46449;-74
2022/09/04 12:46:15;;;;;;;1.92;1.10;;;27.40;40.80;;;;;;5151416;27;45216;-75
2022/09/04 12:48:47;;;;;;;1.35;1.00;;;27.40;40.70;;;;;;5151369;27;45222;-74
2022/09/04 12:51:15;;;;;;;1.15;1.08;;;27.50;40.60;;;;;;5151702;27;45383;-75
2022/09/04 12:54:12;;;;;;;1.90;1.10;;;27.50;40.20;;;;;;5150806;27;45353;-74
2022/09/04 12:56:46;;;;;;;1.73;0.95;;;27.50;39.70;;;;;;5147395;27;45275;-74
2022/09/04 12:59:28;;;;;;;1.77;1.05;;;27.50;38.90;;;;;;5149176;27;45301;-75
2022/09/04 13:01:58;;;;;;;1.67;0.90;;;27.60;39.10;;;;;;5149932;27;45349;-74
2022/09/04 13:04:29;;;;;;;1.25;0.90;;;27.60;39.00;;;;;;5151230;27;46722;-75
2022/09/04 13:07:06;;;;;;;1.33;1.00;;;27.70;39.40;;;;;;5134931;27;45236;-75
2022/09/04 13:09:36;;;;;;;1.00;1.00;;;27.80;38.80;;;;;;5150773;27;45513;-75
2022/09/04 13:12:10;;;;;;;0.98;0.98;;;27.80;37.90;;;;;;5148885;27;45265;-74
2022/09/04 13:14:59;;;;;;;0.80;0.80;;;27.80;37.70;;;;;;5147230;27;45469;-75
2022/09/04 13:17:29;;;;;;;1.67;1.30;;;27.90;38.30;;;;;;5148786;27;45281;-75
2022/09/04 13:19:59;;;;;;;1.52;1.17;;;27.90;38.20;;;;;;5135492;27;45329;-74
2022/09/04 13:22:30;;;;;;;1.35;0.90;;;28.00;38.40;;;;;;5130344;27;45600;-75
2022/09/04 13:25:03;;;;;;;1.30;0.90;;;28.10;37.80;;;;;;5144997;27;45428;-74
2022/09/04 13:27:39;;;;;;;2.58;1.00;;;28.10;37.10;;;;;;5151047;27;45285;-75
2022/09/04 13:30:07;;;;;;;1.90;1.10;;;28.10;37.20;;;;;;5146821;27;45278;-74
2022/09/04 13:33:07;;;;;;;1.92;1.25;;;28.10;37.30;;;;;;5129969;27;45248;-75
2022/09/04 13:35:51;;;;;;;1.20;1.10;;;28.10;36.80;;;;;;5050684;28;45506;-75
2022/09/04 13:38:39;;;;;;;0.85;0.85;;;28.20;36.80;;;;;;5132945;27;45326;-74
2022/09/04 13:41:42;;;;;;;1.25;1.02;;;28.20;37.10;;;;;;5132993;27;45314;-75
2022/09/04 13:44:20;;;;;;;1.90;1.00;;;28.30;37.10;;;;;;5150665;27;45207;-74
2022/09/04 13:46:49;;;;;;;1.90;1.17;;;28.30;36.70;;;;;;5150461;27;46753;-74
2022/09/04 13:49:17;;;;;;;1.48;1.00;;;28.30;37.20;;;;;;5150670;27;45418;-74